Latest METARs, TAFs and NOTAMs for LLBG


---------------------------------------------------------------------------
	(OBSERVATIONS)
LLBG 240850Z 18013KT CAVOK 24/01 Q1010 NOSIG=
LLBG 240820Z 16010KT CAVOK 23/01 Q1010 NOSIG=
LLBG 240750Z 14008KT CAVOK 22/02 Q1010 NOSIG=
LLBG 240720Z 15004KT 110V180 CAVOK 20/04 Q1010 NOSIG=
LLBG 240650Z 13007KT CAVOK 18/03 Q1010 NOSIG=
LLBG 240620Z 12006KT CAVOK 16/03 Q1010 NOSIG=
---------------------------------------------------------------------------
	(FC)
Sorry, FC For LLBG Not Found
---------------------------------------------------------------------------
	(TERMINAL AREA FORECAST)
LLBG 240510Z 2406/2506 13005KT CAVOK
    BECMG 2408/2410 22010KT 6000 NSC
    PROB30 2411/2415 25020KT 3000 DU
    BECMG 2415/2417 VRB03KT 8000 FEW025
    TX24/2411Z TN08/2504Z=
---------------------------------------------------------------------------
	(NOTAMS)


LLBG A0047/19 AUTO LDG RWY 21 PROHIBITED. ISRAEL AIP, PART AD,
    CHARTS AD 2.5-44 REF. 07 JAN 05:55 2019 UNTIL PERM. CREATED:
    07 JAN 05:56 2019

LLBG A0048/19 ANTENNA MAST AT PSN N320013E0345341, HGT (19.86M)
    65.24FT AGL, 58.68M) 192.76FT QNH. DAY AND NGT MARKED. CTN
    ADZ. ISRAEL AIP, PART AD, PAGE 2.5-3, TABLE LLBG AD 2.10,
    AND CHART AD 2.5-18A, 2.5-18B. REF. 07 JAN 05:58 2019 UNTIL
    PERM. CREATED: 07 JAN 05:58 2019

LLBG A0049/19 RADAR FAC AT PSN N320036E0345305, HGT (33.10M)
    108.7FT AGL, (67.78M) 222.66FT QNH. DAY AND NGT MARKED. CTN
    ADZ. ISRAEL AIP, PART AD, PAGE 2.5-3, TABLE LLBG AD 2.10,
    AND CHART AD 2.5-18A, 2.5-18B. REF. 07 JAN 05:58 2019 UNTIL
    PERM. CREATED: 07 JAN 05:58 2019

LLBG A0051/19 CHART AD 2.5-45 RNP Y RWY 30 (AR) SUSPENDED. ISRAEL-AIP,
    PART AD, CHART AD 2.5-45 REF. 07 JAN 06:01 2019 UNTIL PERM.
    CREATED: 07 JAN 06:01 2019

LLBG A0055/19 AD CLSD DUE WIP. JAN 11 1600-2055, FEB 08 1600-2055,
    MAR 08 1600-2055, 11 JAN 16:00 2019 UNTIL 08 MAR 20:55 2019.
    CREATED: 07 JAN 06:11 2019

LLBG A0057/19 WHEN EXECUTING SID YUVAL, IF UNA TO REACH 8,000FT
    AT KESEF PCD HDG 270DEG EXP RADAR VECTORING AND ADVISE ATC.
    ISRAEL-AIP, PART AD, CHART AD 2.5-29 REF. 07 JAN 06:15 2019
    UNTIL PERM. CREATED: 07 JAN 06:15 2019

LLBG A0058/19 WPT SIX REDESIGNATED AS FLYOVER POINT, PSN N315938E0344619.
    ISRAEL AIP, PART AD LLBG, CHARTS AD 2.5-27A, AD 2.5-27B,
    AD 2.5-27C, AD 2.5-29, AD 2.5-33A, AD 2.5-33B, AD 2.5-33C,
    AD 2.5-33D, REF. 07 JAN 06:18 2019 UNTIL PERM. CREATED: 07
    JAN 06:18 2019

LLBG A0059/19 AD AVBL TO INSTR APCH TRG FLTS FM 0700LMT. AIP
    ISRAEL PART AD PAGE 2.5-12 PARA 7(7.2)(A) REF. 07 JAN 06:18
    2019 UNTIL PERM. CREATED: 07 JAN 06:19 2019

LLBG A0060/19 AD CLSD DUE WIP. APR 05, MAY 03 31, JUL 05, AUG
    02, SEP 06, OCT 04 DAILY 1500-1955, 05 APR 15:00 2019 UNTIL
    04 OCT 19:55 2019. CREATED: 07 JAN 06:23 2019

LLBG A0064/19 APN REDESIGNATED V1, PRKG PSNS V71-V78 AT APN V
    REDESIGNATED V6-V9. MAX TYP B757-200, MAX WING SPAN 41.10M.
    ENTRY/EXIT VIA TWL VG OR VF. ISRAEL AIP, AIC 4/18 WEF 29
    AUG 2018 REF. 07 JAN 06:35 2019 UNTIL PERM. CREATED: 07 JAN
    06:35 2019

LLBG A0065/19 ILS PROC RWY 30 TEMPO SUSPENDED. ISRAEL AIP, PART
    AD, CHART AD 2.5-41 REF. 07 JAN 06:40 2019 UNTIL 31 MAR 21:59
    2019 ESTIMATED. CREATED: 07 JAN 06:41 2019

LLBG A0067/19 AD LIMITATIONS ON RWYS WITHDRAWN. RWYS CLOSURE
    WILL BE ISSUED BY NOTAMS. ISRAEL AIP, PART AD, PAGE AD 2.5-12A,
    PARA 10.5 REF. 07 JAN 06:44 2019 UNTIL PERM. CREATED: 07
    JAN 06:44 2019

LLBG A0068/19 LDG OF 4 ENG ACFT PERMITTED SUN-FRI BTN 0800-1200LMT
    BY PPR FM AD ADMINISTRATION ONLY. LAST LDG AT 1000UTC. ISRAEL
    AIP, PART AD, PAGE AD 2.5-12A, PARA 10.2 REF. SUN-FRI 0600-1000,
    08 JAN 06:00 2019 UNTIL 28 FEB 10:00 2019. CREATED: 07 JAN
    06:45 2019

LLBG A0069/19 ERRONEOUS OBST (TRANSMISSION LINE TOWER) ALT. OBST
    AT COOR N315829E0345424 (SE OF THR RWY 30, CURRENTLY DEPICTED
    AS 548FT QNH) CORRECTED ALT IS 263FT QNH. ISRAEL-AIP, PART
    AD, CHART AD 2.5-46F REF. 07 JAN 06:46 2019 UNTIL PERM. CREATED:
    07 JAN 06:47 2019

LLBG A0070/19 TA WI TEL-AVIV FIR CHG TO 18,000FT. TRL CHG TO
    FL200. ISRAEL AIP, PART AD, CHARTS: AD2.5-27A; AD2.5-27B;
    AD2.5-27C; AD2.5-29B; AD2.5-37; AD2.5-38. REF. 07 JAN 06:49
    2019 UNTIL PERM. CREATED: 07 JAN 06:49 2019

LLBG A0074/19 GUIDANCE WI APN B BY A-VDGS. AZM GUIDANCE FACES
    LEFT SEAT PILOT EYE. IF ASSISTANCE REQ CTC GND. ISRAEL AIP,
    PART AD, PAGE 2.5-11, CHART AD 2.5-16 REF. 07 JAN 06:54 2019
    UNTIL PERM. CREATED: 07 JAN 06:55 2019

LLBG A0075/19 GUIDANCE WI APN C BY A-VDGS. AZM GUIDANCE FACES
    LEFT SEAT PILOT EYE. IF ASSISTANCE REQ CTC GND. ISRAEL AIP,
    PART AD, PAGE 2.5-11, CHART AD 2.5-16 REF. 07 JAN 06:55 2019
    UNTIL PERM. CREATED: 07 JAN 06:55 2019

LLBG A0077/19 ILS RWY30 FREQ 111.900MHZ CH56X ON TEST, DO NOT
    USE. ISRAEL AIP, PART AD, PAGE AD 2.5-9 TABLE 2.19 REF. 07
    JAN 11:53 2019 UNTIL 31 MAR 21:59 2019 ESTIMATED. CREATED:
    07 JAN 11:54 2019

LLBG A0078/19 FLTS ARR FM LCCC FIR SHALL CROSS SOLIN NOT BFR
    0140LMT. ISRAEL AIP, PART AD, PAGE AD 2.5-12A, PARA 10.4
    REF. 07 JAN 11:57 2019 UNTIL PERM. CREATED: 07 JAN 11:58
    2019

LLBG A0133/19 ACFT STANDS C2-C9 CLSD DUE WIP. 07 JAN 14:33 2019
    UNTIL 06 FEB 07:00 2019. CREATED: 07 JAN 14:33 2019

LLBG A0183/19 ACFT STANDS LIMITED TO MAX WING SPAN 36M: L4A PSN
    N315942.8509 E0345330.8954 L4B PSN N315941.4149 E0345330.3475
    L5A PSN N315939.9877 E0345329.8034 ISRAEL AIP, PART AD CHART
    2.5-15 AND 2.5-15 BACK REF. 16 JAN 05:55 2019 UNTIL PERM.
    CREATED: 16 JAN 05:55 2019

LLBG A0279/19 RWY 03/21 CLSD WO RWY INTS, DUE WIP. 24 JAN 19:30
    2019 UNTIL 24 JAN 22:30 2019. CREATED: 22 JAN 10:50 2019

LLBG A0281/19 GUIDANCE WI APN D BY A-VDGS. AZM GUIDANCE FACES
    LEFT SEAT PILOT EYE. IF ASSISTANCE REQ CTC GND. ISRAEL AIP,
    PART AD, PAGE 2.5-11, CHART AD 2.5-16 REF. 22 JAN 13:59 2019
    UNTIL PERM. CREATED: 22 JAN 13:59 2019

LLBG A0282/19 APAPI RWY 08 WITHDRAWN FOR MAINT. 27 JAN 07:00
    2019 UNTIL 27 JAN 11:00 2019. CREATED: 23 JAN 08:39 2019

LLBG A0287/19 ILS RWY12 FREQ 110.300MHZ CH40X WITHDRAWN FOR MAINT.
    28 JAN 06:30 2019 UNTIL 28 JAN 11:00 2019. CREATED: 23 JAN
    09:10 2019

LLBG A0290/19 RWY 12/30 CLSD BTN R-W4 DUE WIP. 28 JAN 06:30 2019
    UNTIL 28 JAN 13:00 2019. CREATED: 23 JAN 09:37 2019

LLBG A0291/19 TWY INT K/Z CLSD DUE WIP. 28 JAN 06:30 2019 UNTIL
    28 JAN 14:00 2019. CREATED: 23 JAN 09:41 2019

LLBG A0292/19 TWY K CLSD BTN RWY 08 AND TWY W4 DUE WIP. 28 JAN
    06:30 2019 UNTIL 28 JAN 14:00 2019. CREATED: 23 JAN 09:44
    2019

LLBG A0293/19 TWY S CLSD DUE WIP. 28 JAN 06:30 2019 UNTIL 28
    JAN 14:00 2019. CREATED: 23 JAN 09:54 2019

LLBG A0294/19 TWY M CLSD BTN E-K2 DUE WIP. 29 JAN 06:30 2019
    UNTIL 29 JAN 07:30 2019. CREATED: 23 JAN 09:58 2019

LLBG A0295/19 TWY K CLSD BTN J-L DUE WIP. 29 JAN 07:00 2019 UNTIL
    29 JAN 08:00 2019. CREATED: 23 JAN 10:02 2019

LLBG A0296/19 RWY 08/26 CLSD WO RWY INT 08/12 AND 08/K DUE WIP.
    30 JAN 00:01 2019 UNTIL 30 JAN 03:00 2019. CREATED: 23 JAN
    10:06 2019

LLBG A0297/19 TWY R CLSD BTN TWY E-N DUE WIP. 30 JAN 00:01 2019
    UNTIL 30 JAN 03:00 2019. CREATED: 23 JAN 10:08 2019

LLBG A0298/19 TWY E CLSD BTN N-R DUE WIP. 30 JAN 00:01 2019 UNTIL
    30 JAN 02:00 2019. CREATED: 23 JAN 10:11 2019

LLBG A0299/19 TWY N CLSD BTN TWY E-R DUE WIP. 30 JAN 00:01 2019
    UNTIL 30 JAN 03:00 2019. CREATED: 23 JAN 10:14 2019

LLBG A0300/19 RESA 26 CLSD DUE WIP. 30 JAN 06:00 2019 UNTIL 30
    JAN 11:00 2019. CREATED: 23 JAN 10:19 2019

LLBG A0301/19 TWY K CLSD BTN RWY/TWY 12-K AND TWY E3 DUE WIP.
    29 JAN 06:30 2019 UNTIL 29 JAN 12:00 2019. CREATED: 23 JAN
    10:29 2019

LLBG A0302/19 RESA 30 CLSD DUE WIP. 28 JAN 07:00 2019 UNTIL 28
    JAN 10:30 2019. CREATED: 23 JAN 11:07 2019

LLBG A0303/19 RESA 12 CLSD DUE WIP. 28 JAN 07:00 2019 UNTIL 28
    JAN 10:30 2019. CREATED: 23 JAN 11:10 2019

LLBG A0304/19 RWY 12/30 CLSD BTN RWY 03 AND TWY L, DUE WIP. 28
    JAN 07:00 2019 UNTIL 28 JAN 10:30 2019. CREATED: 23 JAN 11:13
    2019

LLBG A0307/19 TWY E CLSD BTN N-R DUE WIP. 29 JAN 00:01 2019 UNTIL
    29 JAN 02:00 2019. CREATED: 23 JAN 13:09 2019

LLBG A0308/19 TWY N CLSD BTN TWY E-R DUE WIP. 29 JAN 00:01 2019
    UNTIL 29 JAN 03:00 2019. CREATED: 23 JAN 13:10 2019

LLBG A0309/19 TWY R CLSD BTN TWY E-N DUE WIP. 29 JAN 00:01 2019
    UNTIL 29 JAN 03:00 2019. CREATED: 23 JAN 13:11 2019

LLBG A0310/19 RWY 08/26 CLSD WO RWY INT 08/12 AND 08/K DUE WIP.
    29 JAN 00:01 2019 UNTIL 29 JAN 03:00 2019. CREATED: 23 JAN
    13:12 2019

LLBG A0317/19 ACFT STANDS E2G-E9G CLSD DUE WIP. 10 FEB 07:00
    2019 UNTIL 03 MAR 07:00 2019. CREATED: 23 JAN 15:58 2019

LLBG A1120/08 POSS DISRUPTIONS DUE TO LOCAL LABOR DISPUTE. 09
    SEP 03:00 UNTIL 10 SEP 03:00 ESTIMATED

---------------------------------------------------------------------------